createdAt,value
2019-05-16T00:01:38.409Z,56.74
2019-05-16T00:04:08.745Z,56.54
2019-05-16T00:06:41.840Z,56.59
2019-05-16T00:09:09.179Z,56.62
2019-05-16T00:11:42.751Z,56.88
2019-05-16T00:14:13.495Z,56.45
2019-05-16T00:16:41.910Z,56.47
2019-05-16T00:19:10.378Z,56.09
2019-05-16T00:21:43.826Z,56.88
2019-05-16T00:24:19.103Z,56.92
2019-05-16T00:26:50.020Z,57.09
2019-05-16T00:29:18.535Z,57.11
2019-05-16T00:31:50.743Z,56.93
2019-05-16T00:34:19.962Z,57.03
2019-05-16T00:36:48.851Z,57.38
2019-05-16T00:39:20.344Z,57.29
2019-05-16T00:41:52.865Z,56.44
2019-05-16T00:44:22.680Z,56.95
2019-05-16T00:46:51.047Z,57.05
2019-05-16T00:49:21.012Z,57.58
2019-05-16T00:51:49.435Z,57.09
2019-05-16T00:54:18.687Z,56.73
2019-05-16T00:56:53.510Z,57.47
2019-05-16T00:59:27.564Z,57.85
2019-05-16T01:01:58.768Z,57.25
2019-05-16T01:04:28.810Z,57.41
2019-05-16T01:07:01.636Z,57.18
2019-05-16T01:09:28.215Z,57.24
2019-05-16T01:11:57.918Z,57.01
2019-05-16T01:14:28.266Z,56.75
2019-05-16T01:16:59.174Z,56.81
2019-05-16T01:19:27.865Z,56.77
2019-05-16T01:21:58.809Z,56.82
2019-05-16T01:24:33.560Z,57.03
2019-05-16T01:27:01.969Z,56.55
2019-05-16T01:29:31.409Z,56.06
2019-05-16T01:31:59.805Z,56.72
2019-05-16T01:34:28.504Z,56.94
2019-05-16T01:36:58.966Z,56.12
2019-05-16T01:39:28.752Z,56.28
2019-05-16T01:42:00.575Z,55.97
2019-05-16T01:44:30.091Z,56.40
2019-05-16T01:47:02.119Z,56.55
2019-05-16T01:49:29.617Z,56.35
2019-05-16T01:51:58.097Z,55.89
2019-05-16T01:54:28.269Z,56.06
2019-05-16T01:56:59.373Z,56.33
2019-05-16T01:59:28.413Z,56.40
2019-05-16T02:02:00.715Z,56.46
2019-05-16T02:04:28.754Z,56.49
2019-05-16T02:07:01.049Z,56.02
2019-05-16T02:09:31.643Z,56.07
2019-05-16T02:12:02.521Z,56.55
2019-05-16T02:14:32.015Z,56.34
2019-05-16T02:17:00.454Z,55.28
2019-05-16T02:19:28.909Z,55.70
2019-05-16T02:22:00.045Z,54.92
2019-05-16T02:24:31.440Z,55.40
2019-05-16T02:27:05.616Z,55.25
2019-05-16T02:29:36.475Z,54.96
2019-05-16T02:32:07.373Z,54.55
2019-05-16T02:34:36.659Z,54.56
2019-05-16T02:37:24.280Z,54.92
2019-05-16T02:39:42.712Z,54.20
2019-05-16T02:42:12.969Z,54.30
2019-05-16T02:44:41.579Z,54.44
2019-05-16T02:47:11.180Z,55.04
2019-05-16T02:49:41.950Z,55.43
2019-05-16T02:52:11.778Z,54.97
2019-05-16T02:54:41.845Z,55.40
2019-05-16T02:57:15.086Z,55.55
2019-05-16T02:59:43.513Z,55.49
2019-05-16T03:02:12.058Z,55.24
2019-05-16T03:04:44.071Z,54.52
2019-05-16T03:07:13.401Z,55.37
2019-05-16T03:09:51.359Z,55.28
2019-05-16T03:12:26.380Z,54.99
2019-05-16T03:15:02.414Z,54.45
2019-05-16T03:17:35.220Z,54.54
2019-05-16T03:20:03.862Z,54.74
2019-05-16T03:22:32.276Z,53.89
2019-05-16T03:25:01.327Z,54.63
2019-05-16T03:27:36.738Z,54.63
2019-05-16T03:30:14.395Z,54.86
2019-05-16T03:32:43.827Z,54.91
2019-05-16T03:35:14.545Z,54.51
2019-05-16T03:37:53.954Z,54.22
2019-05-16T03:40:13.258Z,54.90
2019-05-16T03:42:44.016Z,54.38
2019-05-16T03:45:12.856Z,53.99
2019-05-16T03:47:43.465Z,52.86
2019-05-16T03:50:12.095Z,53.89
2019-05-16T03:52:43.663Z,53.67
2019-05-16T03:55:11.541Z,54.41
2019-05-16T03:57:41.679Z,54.53
2019-05-16T04:00:12.064Z,54.30
2019-05-16T04:02:45.614Z,54.27
2019-05-16T04:05:15.612Z,54.37
2019-05-16T04:07:44.202Z,54.50
2019-05-16T04:10:12.838Z,53.06
2019-05-16T04:12:42.201Z,52.79
2019-05-16T04:15:21.468Z,52.75
2019-05-16T04:17:43.503Z,53.28
2019-05-16T04:20:12.092Z,53.22
2019-05-16T04:22:41.553Z,52.82
2019-05-16T04:25:11.222Z,52.23
2019-05-16T04:27:41.782Z,52.20
2019-05-16T04:30:11.637Z,52.40
2019-05-16T04:32:42.331Z,53.05
2019-05-16T04:35:13.578Z,52.05
2019-05-16T04:37:45.526Z,52.33
2019-05-16T04:40:14.243Z,50.89
2019-05-16T04:42:46.550Z,51.57
2019-05-16T04:45:16.199Z,49.97
2019-05-16T04:47:51.934Z,52.02
2019-05-16T04:50:21.042Z,50.33
2019-05-16T04:52:52.550Z,51.62
2019-05-16T04:55:21.337Z,51.75
2019-05-16T04:57:51.125Z,49.37
2019-05-16T05:00:21.480Z,48.71
2019-05-16T05:02:55.089Z,49.26
2019-05-16T05:05:24.540Z,49.88
2019-05-16T05:07:55.404Z,50.57
2019-05-16T05:10:26.528Z,49.40
2019-05-16T05:13:01.547Z,48.88
2019-05-16T05:15:30.718Z,49.77
2019-05-16T05:18:03.375Z,49.28
2019-05-16T05:20:36.185Z,48.14
2019-05-16T05:23:06.658Z,49.32
2019-05-16T05:25:35.018Z,48.03
2019-05-16T05:28:05.075Z,48.70
2019-05-16T05:30:33.729Z,49.21
2019-05-16T05:33:05.623Z,48.56
2019-05-16T05:35:40.868Z,48.43
2019-05-16T05:38:10.474Z,48.97
2019-05-16T05:40:40.436Z,47.15
2019-05-16T05:43:17.164Z,47.42
2019-05-16T05:45:46.646Z,46.68
2019-05-16T05:48:17.821Z,47.24
2019-05-16T05:50:46.216Z,46.84
2019-05-16T05:53:14.767Z,47.38
2019-05-16T05:55:43.204Z,48.62
2019-05-16T05:58:11.625Z,47.77
2019-05-16T06:00:40.614Z,48.50
2019-05-16T06:03:10.715Z,48.35
2019-05-16T06:05:41.316Z,47.64
2019-05-16T06:08:10.689Z,47.82
2019-05-16T06:10:40.518Z,48.68
2019-05-16T06:13:11.122Z,47.63
2019-05-16T06:15:40.024Z,49.21
2019-05-16T06:18:10.800Z,49.08
2019-05-16T06:20:40.085Z,48.18
2019-05-16T06:23:11.128Z,50.61
2019-05-16T06:25:41.648Z,47.76
2019-05-16T06:28:10.895Z,48.05
2019-05-16T06:30:40.799Z,47.34
2019-05-16T06:33:10.219Z,46.81
2019-05-16T06:35:40.248Z,46.38
2019-05-16T06:38:09.995Z,45.87
2019-05-16T06:40:40.270Z,47.26
2019-05-16T06:43:10.967Z,47.50
2019-05-16T06:45:40.210Z,45.90
2019-05-16T06:48:10.036Z,44.00
2019-05-16T06:50:40.204Z,45.15
2019-05-16T06:53:10.419Z,44.00
2019-05-16T06:55:43.161Z,43.62
2019-05-16T06:58:30.264Z,43.90
2019-05-16T07:00:59.295Z,46.82
2019-05-16T07:03:26.345Z,45.27
2019-05-16T07:06:02.151Z,46.52
2019-05-16T07:08:31.211Z,44.11
2019-05-16T07:11:00.872Z,47.53
2019-05-16T07:13:30.623Z,46.68
2019-05-16T07:16:00.523Z,45.54
2019-05-16T07:18:31.043Z,46.92
2019-05-16T07:21:05.366Z,47.01
2019-05-16T07:23:36.606Z,46.09
2019-05-16T07:26:09.935Z,47.43
2019-05-16T07:28:44.061Z,51.44
2019-05-16T07:31:18.430Z,48.97
2019-05-16T07:33:42.663Z,51.98
2019-05-16T07:36:11.183Z,50.63
2019-05-16T07:38:40.147Z,51.55
2019-05-16T07:41:11.024Z,50.37
2019-05-16T07:43:43.972Z,50.24
2019-05-16T07:46:12.380Z,52.02
2019-05-16T07:48:41.666Z,51.33
2019-05-16T07:51:10.521Z,50.29
2019-05-16T07:53:41.455Z,50.75
2019-05-16T07:56:12.488Z,53.25
2019-05-16T07:58:42.944Z,54.10
2019-05-16T08:01:12.428Z,54.41
2019-05-16T08:03:44.120Z,52.16
2019-05-16T08:06:11.571Z,50.78
2019-05-16T08:08:40.438Z,52.76
2019-05-16T08:11:11.838Z,52.78
2019-05-16T08:13:50.740Z,53.50
2019-05-16T08:16:22.617Z,53.19
2019-05-16T08:18:53.232Z,51.96
2019-05-16T08:21:30.907Z,55.32
2019-05-16T08:24:05.825Z,54.05
2019-05-16T08:26:32.212Z,52.68
2019-05-16T08:29:01.965Z,54.94
2019-05-16T08:31:31.760Z,51.98
2019-05-16T08:34:01.164Z,52.55
2019-05-16T08:36:31.310Z,52.55
2019-05-16T08:39:01.080Z,55.78
2019-05-16T08:41:31.499Z,54.98
2019-05-16T08:44:03.635Z,53.76
2019-05-16T08:46:32.612Z,53.68
2019-05-16T08:49:02.287Z,52.78
2019-05-16T08:51:38.058Z,52.84
2019-05-16T08:54:06.595Z,54.83
2019-05-16T08:56:35.005Z,54.46
2019-05-16T08:59:06.375Z,53.84
2019-05-16T09:01:35.269Z,53.34
2019-05-16T09:04:04.188Z,54.98
2019-05-16T09:06:32.594Z,54.06
2019-05-16T09:11:44.218Z,53.50
2019-05-16T09:14:01.323Z,53.35
2019-05-16T09:16:31.369Z,54.49
2019-05-16T09:18:32.827Z,52.92
2019-05-16T09:19:03.665Z,52.97
2019-05-16T09:21:32.093Z,53.26
2019-05-16T09:24:00.519Z,52.61
2019-05-16T09:26:29.283Z,53.09
2019-05-16T09:28:57.827Z,51.94
2019-05-16T09:31:30.132Z,50.95
2019-05-16T09:33:56.856Z,52.00
2019-05-16T09:36:30.014Z,52.56
2019-05-16T09:38:58.427Z,51.68
2019-05-16T09:41:32.169Z,53.19
2019-05-16T09:44:08.400Z,53.56
2019-05-16T09:46:37.579Z,53.05
2019-05-16T09:49:16.676Z,53.23
2019-05-16T09:51:40.500Z,52.18
2019-05-16T09:54:10.641Z,53.03
2019-05-16T09:56:38.991Z,53.95
2019-05-16T09:59:07.404Z,54.38
2019-05-16T10:01:37.116Z,56.69
2019-05-16T10:04:06.999Z,57.97
2019-05-16T10:06:37.318Z,58.98
2019-05-16T10:09:07.457Z,58.36
2019-05-16T10:11:41.476Z,56.91
2019-05-16T10:14:07.243Z,59.86
2019-05-16T10:16:47.880Z,60.37
2019-05-16T10:19:16.987Z,59.77
2019-05-16T10:21:46.434Z,61.95
2019-05-16T10:24:15.061Z,62.60
2019-05-16T10:26:43.484Z,62.71
2019-05-16T10:29:18.436Z,63.63
2019-05-16T10:31:52.668Z,64.41
2019-05-16T10:34:22.625Z,65.23
2019-05-16T10:36:50.303Z,66.79
2019-05-16T10:39:26.600Z,66.83
2019-05-16T10:41:54.466Z,69.08
2019-05-16T10:44:22.867Z,70.11
2019-05-16T10:46:53.364Z,71.47
2019-05-16T10:49:36.503Z,71.60
2019-05-16T10:52:02.729Z,72.65
2019-05-16T10:54:31.181Z,72.21
2019-05-16T10:56:59.805Z,72.71
2019-05-16T10:59:58.022Z,74.07
2019-05-16T11:02:10.273Z,73.64
2019-05-16T11:04:53.927Z,74.62
2019-05-16T11:07:08.966Z,74.13
2019-05-16T11:09:47.618Z,74.68
2019-05-16T11:12:12.640Z,73.89
2019-05-16T11:14:41.065Z,74.47
2019-05-16T11:17:12.992Z,73.94
2019-05-16T11:19:42.339Z,73.95
2019-05-16T11:22:13.171Z,73.59
2019-05-16T11:24:48.561Z,74.59
2019-05-16T11:27:17.915Z,74.71
2019-05-16T11:29:48.765Z,74.95
2019-05-16T11:32:17.212Z,75.03
2019-05-16T11:34:47.796Z,73.65
2019-05-16T11:37:17.660Z,73.25
2019-05-16T11:39:50.039Z,74.23
2019-05-16T11:42:18.582Z,73.06
2019-05-16T11:44:47.864Z,72.49
2019-05-16T11:47:16.642Z,72.28
2019-05-16T11:49:47.431Z,73.86
2019-05-16T11:52:17.984Z,73.79
2019-05-16T11:54:49.547Z,74.38
2019-05-16T11:57:18.122Z,73.53
2019-05-16T11:59:47.182Z,73.52
2019-05-16T12:02:21.454Z,74.22
2019-05-16T12:04:52.629Z,74.93
2019-05-16T12:07:21.061Z,74.88
2019-05-16T12:09:55.251Z,75.45
2019-05-16T12:12:20.898Z,75.60
2019-05-16T12:14:49.645Z,75.13
2019-05-16T12:17:18.068Z,75.42
2019-05-16T12:19:48.187Z,75.24
2019-05-16T12:22:18.344Z,75.60
2019-05-16T12:24:50.684Z,75.70
2019-05-16T12:27:19.097Z,73.97
2019-05-16T12:29:54.144Z,75.28
2019-05-16T12:32:17.637Z,75.08
2019-05-16T12:34:46.398Z,74.75
2019-05-16T12:37:14.956Z,74.70
2019-05-16T12:39:43.391Z,74.17
2019-05-16T12:42:11.849Z,73.68
2019-05-16T12:44:40.267Z,74.18
2019-05-16T12:47:08.683Z,73.64
2019-05-16T12:49:37.152Z,72.63
2019-05-16T12:52:06.782Z,72.32
2019-05-16T12:54:37.850Z,71.16
2019-05-16T12:57:06.247Z,71.30
2019-05-16T12:59:36.686Z,69.83
2019-05-16T13:02:07.270Z,70.45
2019-05-16T13:04:37.322Z,68.85
2019-05-16T13:07:09.364Z,66.93
2019-05-16T13:09:37.067Z,65.25
2019-05-16T13:12:08.842Z,63.35
2019-05-16T13:14:40.322Z,64.29
2019-05-16T13:17:07.494Z,63.16
2019-05-16T13:19:43.947Z,61.69
2019-05-16T13:22:07.461Z,57.70
2019-05-16T13:24:38.489Z,59.77
2019-05-16T13:27:08.368Z,56.35
2019-05-16T13:29:37.097Z,55.42
2019-05-16T13:32:07.614Z,58.44
2019-05-16T13:34:38.106Z,55.59
2019-05-16T13:37:07.531Z,59.23
2019-05-16T13:39:36.245Z,57.44
2019-05-16T13:42:07.710Z,56.75
2019-05-16T13:44:34.846Z,56.81
2019-05-16T13:47:03.631Z,57.97
2019-05-16T13:49:32.106Z,56.88
2019-05-16T13:52:00.521Z,56.44
2019-05-16T13:54:28.971Z,56.98
2019-05-16T13:56:57.459Z,57.62
2019-05-16T13:59:28.017Z,57.61
2019-05-16T14:01:57.325Z,58.12
2019-05-16T14:04:26.444Z,57.87
2019-05-16T14:06:59.663Z,60.12
2019-05-16T14:09:28.146Z,59.06
2019-05-16T14:11:57.640Z,59.32
2019-05-16T14:14:37.915Z,58.49
2019-05-16T14:16:57.280Z,58.82
2019-05-16T14:19:27.962Z,58.83
2019-05-16T14:22:00.721Z,57.94
2019-05-16T14:24:28.276Z,58.99
2019-05-16T14:26:57.379Z,60.66
2019-05-16T14:29:27.883Z,59.47
2019-05-16T14:31:56.777Z,59.72
2019-05-16T14:34:27.885Z,60.89
2019-05-16T14:36:57.864Z,60.36
2019-05-16T14:39:28.475Z,60.41
2019-05-16T14:41:56.926Z,60.83
2019-05-16T14:44:28.399Z,60.73
2019-05-16T14:46:57.543Z,60.02
2019-05-16T14:49:28.849Z,61.57
2019-05-16T14:51:58.039Z,60.55
2019-05-16T14:54:26.932Z,60.72
2019-05-16T14:57:00.207Z,61.26
2019-05-16T14:59:27.859Z,61.14
2019-05-16T15:01:58.125Z,60.85
2019-05-16T15:04:30.114Z,60.65
2019-05-16T15:06:57.351Z,61.80
2019-05-16T15:09:27.324Z,61.55
2019-05-16T15:11:58.146Z,60.18
2019-05-16T15:14:28.123Z,60.55
2019-05-16T15:16:57.644Z,59.97
2019-05-16T15:19:26.198Z,58.82
2019-05-16T15:21:57.065Z,60.38
2019-05-16T15:24:26.851Z,59.63
2019-05-16T15:26:57.799Z,60.45
2019-05-16T15:29:30.448Z,60.37
2019-05-16T15:31:58.946Z,60.19
2019-05-16T15:34:30.163Z,61.04
2019-05-16T15:37:00.235Z,62.31
2019-05-16T15:39:28.744Z,61.94
2019-05-16T15:42:00.001Z,62.58
2019-05-16T15:44:33.373Z,63.82
2019-05-16T15:47:03.979Z,64.91
2019-05-16T15:49:32.439Z,63.91
2019-05-16T15:52:00.960Z,64.87
2019-05-16T15:54:31.384Z,65.11
2019-05-16T15:56:59.822Z,66.04
2019-05-16T15:59:30.440Z,66.89
2019-05-16T16:01:59.571Z,67.43
2019-05-16T16:04:31.318Z,67.31
2019-05-16T16:06:59.727Z,68.95
2019-05-16T16:09:30.949Z,69.78
2019-05-16T16:12:07.189Z,70.41
2019-05-16T16:14:31.670Z,71.87
2019-05-16T16:17:00.108Z,71.94
2019-05-16T16:19:28.566Z,71.30
2019-05-16T16:21:57.871Z,72.06
2019-05-16T16:24:27.884Z,72.81
2019-05-16T16:26:59.368Z,72.65
2019-05-16T16:29:27.809Z,72.24
2019-05-16T16:31:56.854Z,73.37
2019-05-16T16:34:26.818Z,73.26
2019-05-16T16:36:56.951Z,72.42
2019-05-16T16:39:26.819Z,73.00
2019-05-16T16:41:56.880Z,73.03
2019-05-16T16:44:27.469Z,73.70
2019-05-16T16:47:01.108Z,72.71
2019-05-16T16:49:33.007Z,73.13
2019-05-16T16:52:01.444Z,72.61
2019-05-16T16:54:29.913Z,73.19
2019-05-16T16:56:58.607Z,72.37
2019-05-16T16:59:28.113Z,72.33
2019-05-16T17:01:58.665Z,71.51
2019-05-16T17:04:27.152Z,70.84
2019-05-16T17:06:56.839Z,71.01
2019-05-16T17:09:26.978Z,70.78
2019-05-16T17:11:57.111Z,71.43
2019-05-16T17:14:26.373Z,71.25
2019-05-16T17:16:58.945Z,71.67
2019-05-16T17:19:29.941Z,70.79
2019-05-16T17:22:13.502Z,70.59
2019-05-16T17:24:36.589Z,70.47
2019-05-16T17:27:07.743Z,71.09
2019-05-16T17:29:36.920Z,71.21
2019-05-16T17:32:09.490Z,71.21
2019-05-16T17:34:38.158Z,70.77
2019-05-16T17:37:09.527Z,71.17
2019-05-16T17:39:36.990Z,72.24
2019-05-16T17:42:07.462Z,70.54
2019-05-16T17:44:36.459Z,71.52
2019-05-16T17:47:07.100Z,71.03
2019-05-16T17:49:37.165Z,71.09
2019-05-16T17:52:06.937Z,70.77
2019-05-16T17:54:37.327Z,70.40
2019-05-16T17:57:07.473Z,70.47
2019-05-16T17:59:37.984Z,71.14
2019-05-16T18:02:06.552Z,72.28
2019-05-16T18:04:37.115Z,71.20
2019-05-16T18:07:07.195Z,71.61
2019-05-16T18:09:36.896Z,70.82
2019-05-16T18:12:07.083Z,71.09
2019-05-16T18:14:37.281Z,70.54
2019-05-16T18:17:07.564Z,70.77
2019-05-16T18:19:37.258Z,70.80
2019-05-16T18:22:08.709Z,71.29
2019-05-16T18:24:37.174Z,70.96
2019-05-16T18:27:06.675Z,71.56
2019-05-16T18:29:36.664Z,71.89
2019-05-16T18:32:06.947Z,72.35
2019-05-16T18:34:37.559Z,73.94
2019-05-16T18:37:06.878Z,74.01
2019-05-16T18:39:38.083Z,73.83
2019-05-16T18:42:10.757Z,74.13
2019-05-16T18:44:39.217Z,74.55
2019-05-16T18:47:11.406Z,75.71
2019-05-16T18:49:37.894Z,76.52
2019-05-16T18:52:06.681Z,76.45
2019-05-16T18:54:37.563Z,77.09
2019-05-16T18:57:07.013Z,77.34
2019-05-16T18:59:36.999Z,77.57
2019-05-16T19:02:09.746Z,77.83
2019-05-16T19:04:37.896Z,78.99
2019-05-16T19:07:10.449Z,78.99
2019-05-16T19:09:39.014Z,78.35
2019-05-16T19:12:09.914Z,78.50
2019-05-16T19:14:37.628Z,78.91
2019-05-16T19:17:21.289Z,79.85
2019-05-16T19:19:38.245Z,80.06
2019-05-16T19:22:07.891Z,80.16
2019-05-16T19:24:36.364Z,79.92
2019-05-16T19:27:10.588Z,79.97
2019-05-16T19:29:41.034Z,79.76
2019-05-16T19:32:09.511Z,79.46
2019-05-16T19:34:37.938Z,79.67
2019-05-16T19:37:08.648Z,79.02
2019-05-16T19:39:41.222Z,79.07
2019-05-16T19:42:12.705Z,78.98
2019-05-16T19:44:46.478Z,79.41
2019-05-16T19:47:14.942Z,79.05
2019-05-16T19:49:48.496Z,79.84
2019-05-16T19:52:16.910Z,79.22
2019-05-16T19:54:47.157Z,79.40
2019-05-16T19:57:19.278Z,79.25
2019-05-16T19:59:47.256Z,78.87
2019-05-16T20:02:16.634Z,79.43
2019-05-16T20:04:47.134Z,79.34
2019-05-16T20:07:16.809Z,79.55
2019-05-16T20:09:46.949Z,79.43
2019-05-16T20:12:16.985Z,79.12
2019-05-16T20:14:47.909Z,79.17
2019-05-16T20:17:20.210Z,78.92
2019-05-16T20:19:48.658Z,79.36
2019-05-16T20:22:19.779Z,79.23
2019-05-16T20:24:49.486Z,79.22
2019-05-16T20:27:21.471Z,78.32
2019-05-16T20:29:53.930Z,78.58
2019-05-16T20:32:22.340Z,78.62
2019-05-16T20:34:56.439Z,78.97
2019-05-16T20:37:26.576Z,78.59
2019-05-16T20:39:55.100Z,78.71
2019-05-16T20:42:24.474Z,78.56
2019-05-16T20:44:53.406Z,78.94
2019-05-16T20:47:21.877Z,79.29
2019-05-16T20:49:50.711Z,78.50
2019-05-16T20:52:21.266Z,78.70
2019-05-16T20:54:50.017Z,78.31
2019-05-16T20:57:18.501Z,78.51
2019-05-16T20:59:49.199Z,78.99
2019-05-16T21:02:17.866Z,78.65
2019-05-16T21:04:48.736Z,79.16
2019-05-16T21:07:19.684Z,78.62
2019-05-16T21:09:49.162Z,78.79
2019-05-16T21:12:18.609Z,78.68
2019-05-16T21:14:49.095Z,78.52
2019-05-16T21:17:17.548Z,78.88
2019-05-16T21:19:48.427Z,78.56
2019-05-16T21:22:19.392Z,78.96
2019-05-16T21:24:50.871Z,79.16
2019-05-16T21:27:22.921Z,78.50
2019-05-16T21:29:51.352Z,78.76
2019-05-16T21:32:27.927Z,78.88
2019-05-16T21:34:57.544Z,78.38
2019-05-16T21:37:28.134Z,79.06
2019-05-16T21:40:02.164Z,78.93
2019-05-16T21:42:40.261Z,79.05
2019-05-16T21:45:08.756Z,78.78
2019-05-16T21:47:37.221Z,78.71
2019-05-16T21:50:08.817Z,78.43
2019-05-16T21:52:40.451Z,78.77
2019-05-16T21:55:11.675Z,79.51
2019-05-16T21:57:57.575Z,78.89
2019-05-16T22:00:52.287Z,78.41
2019-05-16T22:03:28.664Z,78.75
2019-05-16T22:06:02.008Z,78.75
2019-05-16T22:08:40.207Z,78.54
2019-05-16T22:11:17.232Z,78.80
2019-05-16T22:14:00.185Z,78.67
2019-05-16T22:16:32.870Z,78.64
2019-05-16T22:19:03.973Z,78.54
2019-05-16T22:21:36.150Z,78.36
2019-05-16T22:24:06.586Z,78.34
2019-05-16T22:26:38.715Z,77.81
2019-05-16T22:29:13.292Z,77.37
2019-05-16T22:31:47.077Z,78.06
2019-05-16T22:34:26.440Z,77.80
2019-05-16T22:36:57.250Z,78.03
2019-05-16T22:39:37.115Z,77.75
2019-05-16T22:42:02.368Z,77.64
2019-05-16T22:44:37.064Z,77.94
2019-05-16T22:47:27.664Z,77.47
2019-05-16T22:49:57.737Z,77.58
2019-05-16T22:52:27.163Z,77.88
2019-05-16T22:55:08.078Z,78.20
2019-05-16T22:57:39.009Z,78.03
2019-05-16T23:00:26.790Z,78.44
2019-05-16T23:02:50.237Z,78.65
2019-05-16T23:05:24.283Z,79.04
2019-05-16T23:08:09.121Z,79.08
2019-05-16T23:10:59.186Z,78.52
2019-05-16T23:13:40.741Z,78.49
2019-05-16T23:16:47.328Z,79.01
2019-05-16T23:19:02.821Z,79.22
2019-05-16T23:21:47.431Z,80.07
2019-05-16T23:24:21.488Z,79.67
2019-05-16T23:29:47.331Z,80.21
2019-05-16T23:32:44.299Z,80.53
2019-05-16T23:35:02.516Z,80.54
2019-05-16T23:37:48.693Z,80.22
2019-05-16T23:40:27.574Z,80.47
2019-05-16T23:43:07.504Z,80.55
2019-05-16T23:45:49.677Z,80.65
2019-05-16T23:48:20.847Z,80.81
2019-05-16T23:51:19.092Z,80.30
2019-05-16T23:53:56.979Z,80.63
2019-05-16T23:56:47.711Z,80.26
2019-05-16T23:59:22.100Z,80.06
